Time;durP1;ratioP1;P1;durP2;ratioP2;P2;SDS_P1;SDS_P2;PMS_P1;PMS_P2;Temp;Humidity;BMP_temperature;BMP_pressure;BME280_temperature;BME280_humidity;BME280_pressure;Samples;Min_cycle;Max_cycle;Signal;HPM_P1;HPM_P2
2023/09/18 00:02:19;;;;;;;16.70;12.65;;;;;;;17.61;100.00;63818.56;5021839;28;20195;-78
2023/09/18 00:04:46;;;;;;;18.08;13.50;;;;;;;17.64;100.00;63818.56;5031519;28;20218;-77
2023/09/18 00:07:14;;;;;;;16.38;13.30;;;;;;;17.61;100.00;63818.56;5036243;28;20205;-79
2023/09/18 00:09:41;;;;;;;15.82;14.10;;;;;;;17.55;100.00;63812.28;5022637;28;20222;-79
2023/09/18 00:12:09;;;;;;;16.90;14.23;;;;;;;17.58;100.00;63812.84;5025528;28;20273;-76
2023/09/18 00:14:38;;;;;;;16.98;13.65;;;;;;;17.60;100.00;63814.41;5024721;28;20253;-76
2023/09/18 00:17:05;;;;;;;15.40;13.68;;;;;;;17.60;100.00;63817.00;5023585;28;20549;-77
2023/09/18 00:19:33;;;;;;;16.73;13.40;;;;;;;17.57;100.00;63816.97;5016144;28;20221;-76
2023/09/18 00:22:00;;;;;;;16.38;14.32;;;;;;;17.41;100.00;63797.72;5048611;28;20326;-77
2023/09/18 00:24:27;;;;;;;18.20;14.05;;;;;;;17.50;100.00;63809.66;5017011;28;20226;-75
2023/09/18 00:26:54;;;;;;;22.23;14.85;;;;;;;17.49;100.00;63805.53;5016877;28;20251;-76
2023/09/18 00:29:21;;;;;;;19.27;15.20;;;;;;;17.48;100.00;63805.00;5025944;28;20252;-77
2023/09/18 00:31:50;;;;;;;17.67;15.30;;;;;;;17.44;100.00;63800.31;5023944;28;20269;-77
2023/09/18 00:34:17;;;;;;;19.25;15.90;;;;;;;17.42;100.00;63798.22;5024197;28;20230;-77
2023/09/18 00:36:44;;;;;;;21.50;16.42;;;;;;;17.33;100.00;63791.94;5023607;28;20226;-77
2023/09/18 00:39:12;;;;;;;22.13;17.02;;;;;;;17.30;100.00;63791.41;5029547;28;20222;-77
2023/09/18 00:41:39;;;;;;;27.42;17.48;;;;;;;17.33;100.00;63789.38;5026711;28;20201;-77
2023/09/18 00:44:06;;;;;;;22.45;17.92;;;;;;;17.19;100.00;63775.31;5024553;28;20222;-78
2023/09/18 00:46:34;;;;;;;24.92;18.30;;;;;;;17.24;100.00;63780.00;5013429;28;20202;-76
2023/09/18 00:49:03;;;;;;;25.33;18.40;;;;;;;17.16;100.00;63774.25;5026779;28;20224;-78
2023/09/18 00:51:33;;;;;;;27.67;20.00;;;;;;;17.20;100.00;63781.00;5040443;28;20289;-78
2023/09/18 00:54:00;;;;;;;25.95;20.75;;;;;;;17.18;100.00;63773.75;5036586;28;20284;-78
2023/09/18 00:56:28;;;;;;;26.15;22.60;;;;;;;17.18;100.00;63773.75;5029855;28;20245;-77
2023/09/18 00:58:55;;;;;;;30.48;23.38;;;;;;;17.16;100.00;63772.19;5029038;28;20229;-78
2023/09/18 01:01:23;;;;;;;30.15;23.02;;;;;;;17.07;100.00;63760.25;5029314;28;20201;-78
2023/09/18 01:03:53;;;;;;;29.27;24.00;;;;;;;17.08;100.00;63763.88;5017215;28;20252;-76
2023/09/18 01:06:21;;;;;;;31.30;24.63;;;;;;;17.07;100.00;63757.69;5024881;28;20197;-77
2023/09/18 01:08:53;;;;;;;34.65;24.88;;;;;;;17.01;100.00;63756.59;5026597;28;20633;-77
2023/09/18 01:11:32;;;;;;;30.75;25.48;;;;;;;16.99;100.00;63751.41;5029661;28;20206;-78
2023/09/18 01:14:08;;;;;;;33.58;25.70;;;;;;;16.92;100.00;63749.78;5016903;28;20245;-76
2023/09/18 01:16:45;;;;;;;30.27;24.42;;;;;;;16.91;100.00;63746.16;5028017;28;20229;-76
2023/09/18 01:19:12;;;;;;;35.88;25.20;;;;;;;16.88;100.00;63737.38;5009694;28;20232;-78
2023/09/18 01:21:41;;;;;;;31.98;23.88;;;;;;;16.86;100.00;63743.53;5023520;28;20272;-77
2023/09/18 01:24:09;;;;;;;34.17;24.98;;;;;;;16.84;100.00;63735.81;5028349;28;20385;-76
2023/09/18 01:26:36;;;;;;;32.58;25.95;;;;;;;16.85;100.00;63739.94;5029690;28;20232;-76
2023/09/18 01:29:03;;;;;;;30.42;25.65;;;;;;;16.86;100.00;63740.97;5022471;28;20232;-76
2023/09/18 01:31:31;;;;;;;32.83;25.17;;;;;;;16.81;100.00;63735.78;5028706;28;20202;-78
2023/09/18 01:33:59;;;;;;;31.40;23.75;;;;;;;16.81;100.00;63735.78;5027396;28;20237;-76
2023/09/18 01:36:26;;;;;;;34.50;24.02;;;;;;;16.87;100.00;63744.06;5025558;28;20217;-77
2023/09/18 01:38:55;;;;;;;32.67;23.58;;;;;;;16.87;100.00;63744.59;5025897;28;20222;-77
2023/09/18 01:41:24;;;;;;;32.92;22.63;;;;;;;16.90;100.00;63742.03;5021095;28;20273;-76
2023/09/18 01:43:51;;;;;;;32.25;22.40;;;;;;;16.89;100.00;63746.69;5029450;28;20233;-77
2023/09/18 01:46:19;;;;;;;26.73;20.52;;;;;;;16.93;100.00;63748.25;5031855;28;20408;-76
2023/09/18 01:48:47;;;;;;;30.60;22.00;;;;;;;16.99;100.00;63751.94;5020710;28;20222;-76
2023/09/18 01:51:15;;;;;;;29.45;21.17;;;;;;;17.02;100.00;63760.19;5023641;28;20443;-77
2023/09/18 01:53:43;;;;;;;30.63;21.95;;;;;;;17.03;100.00;63755.59;5024237;28;20210;-76
2023/09/18 01:56:10;;;;;;;30.83;21.88;;;;;;;16.97;100.00;63755.00;5026910;28;20531;-76
2023/09/18 01:58:38;;;;;;;32.20;22.25;;;;;;;16.98;100.00;63752.94;5013082;28;20234;-76
2023/09/18 02:01:05;;;;;;;27.45;20.55;;;;;;;16.88;100.00;63745.63;5027406;28;20228;-77
2023/09/18 02:03:32;;;;;;;32.70;21.30;;;;;;;16.84;100.00;63736.31;5024868;28;20198;-76
2023/09/18 02:05:59;;;;;;;31.30;21.73;;;;;;;16.85;100.00;63739.41;5029663;28;20217;-77
2023/09/18 02:08:26;;;;;;;28.38;19.98;;;;;;;16.86;100.00;63743.53;5016876;28;20202;-76
2023/09/18 02:10:53;;;;;;;26.08;19.42;;;;;;;16.85;100.00;63737.38;5028515;28;20202;-76
2023/09/18 02:13:21;;;;;;;28.88;20.75;;;;;;;16.90;100.00;63747.19;5027482;28;20209;-76
2023/09/18 02:15:51;;;;;;;29.58;20.67;;;;;;;16.91;100.00;63745.66;5024513;28;20222;-76
2023/09/18 02:18:18;;;;;;;27.83;20.52;;;;;;;16.92;100.00;63747.22;5023941;28;20222;-76
2023/09/18 02:20:48;;;;;;;28.80;22.02;;;;;;;16.96;100.00;63748.28;5026353;28;20228;-77
2023/09/18 02:23:16;;;;;;;28.40;21.33;;;;;;;16.86;100.00;63740.47;5021338;28;20248;-77
2023/09/18 02:25:43;;;;;;;30.95;22.65;;;;;;;16.95;100.00;63745.19;5011478;28;20599;-76
2023/09/18 02:28:09;;;;;;;30.35;21.73;;;;;;;17.00;100.00;63758.13;5031189;28;20209;-76
2023/09/18 02:30:37;;;;;;;28.58;21.38;;;;;;;16.98;100.00;63755.53;5026290;28;20240;-76
2023/09/18 02:33:05;;;;;;;32.17;23.48;;;;;;;17.02;100.00;63762.25;5018316;28;20202;-77
2023/09/18 02:35:32;;;;;;;30.75;23.98;;;;;;;17.07;100.00;63762.31;5026558;28;20408;-75
2023/09/18 02:38:00;;;;;;;29.38;22.55;;;;;;;17.05;100.00;63762.81;5026520;28;20237;-77
2023/09/18 02:40:27;;;;;;;33.55;22.83;;;;;;;17.08;100.00;63763.88;5020750;28;20230;-76
2023/09/18 02:42:57;;;;;;;28.58;21.40;;;;;;;17.07;100.00;63762.31;5028267;28;20221;-77
2023/09/18 02:45:24;;;;;;;33.40;23.33;;;;;;;17.09;100.00;63761.81;5031997;28;20233;-77
2023/09/18 02:47:51;;;;;;;32.22;22.95;;;;;;;17.05;100.00;63760.25;5033440;28;20341;-76
2023/09/18 02:50:19;;;;;;;30.33;21.30;;;;;;;16.99;100.00;63753.97;5018645;28;20226;-77
2023/09/18 02:52:46;;;;;;;29.52;21.52;;;;;;;16.96;100.00;63753.44;5024944;28;20240;-76
2023/09/18 02:55:13;;;;;;;27.88;20.92;;;;;;;16.93;100.00;63748.25;5022089;28;20230;-76
2023/09/18 02:57:40;;;;;;;28.45;21.30;;;;;;;16.85;100.00;63739.41;5025936;28;20233;-77
2023/09/18 03:00:09;;;;;;;32.08;23.23;;;;;;;16.76;100.00;63730.03;5017122;28;20245;-76
2023/09/18 03:02:36;;;;;;;30.35;22.00;;;;;;;16.75;100.00;63732.09;5038823;28;20405;-76
2023/09/18 03:05:04;;;;;;;30.83;22.35;;;;;;;16.73;100.00;63724.88;5026297;28;20348;-76
2023/09/18 03:07:32;;;;;;;28.45;20.85;;;;;;;16.71;100.00;63724.84;5024192;28;20210;-77
2023/09/18 03:09:59;;;;;;;31.95;20.67;;;;;;;16.70;100.00;63723.81;5025467;28;20222;-77
2023/09/18 03:12:26;;;;;;;31.60;20.75;;;;;;;16.63;100.00;63719.09;5028319;28;20221;-77
2023/09/18 03:14:53;;;;;;;33.38;22.60;;;;;;;16.59;100.00;63715.44;5027128;28;20274;-77
2023/09/18 03:17:21;;;;;;;31.60;19.35;;;;;;;16.57;100.00;63712.84;5022675;28;20313;-76
2023/09/18 03:19:49;;;;;;;26.67;18.45;;;;;;;16.51;100.00;63702.00;5024618;28;20245;-77
2023/09/18 03:22:16;;;;;;;29.60;20.02;;;;;;;16.49;100.00;63707.09;5026124;28;20209;-78
2023/09/18 03:24:44;;;;;;;25.00;18.17;;;;;;;16.42;100.00;63695.19;5024892;28;20228;-76
2023/09/18 03:27:11;;;;;;;28.17;17.73;;;;;;;16.32;100.00;63684.78;5021690;28;20282;-77
2023/09/18 03:29:38;;;;;;;23.00;16.50;;;;;;;16.31;100.00;63683.72;5025190;28;20464;-76
2023/09/18 03:32:06;;;;;;;26.80;18.00;;;;;;;16.26;100.00;63678.53;5037769;28;20210;-77
2023/09/18 03:34:33;;;;;;;22.45;15.30;;;;;;;16.13;100.00;63665.53;5022860;28;20232;-76
2023/09/18 03:37:00;;;;;;;21.17;16.13;;;;;;;16.09;100.00;63661.38;5027816;28;20210;-78
2023/09/18 03:39:27;;;;;;;26.50;17.63;;;;;;;16.05;100.00;63662.34;5026745;28;20228;-76
2023/09/18 03:41:56;;;;;;;24.80;16.58;;;;;;;16.03;100.00;63654.63;5024331;28;20202;-76
2023/09/18 03:44:23;;;;;;;22.90;15.52;;;;;;;15.98;100.00;63646.84;5023430;28;20234;-77
2023/09/18 03:46:50;;;;;;;21.88;16.88;;;;;;;16.02;100.00;63656.66;5026268;28;20244;-75
2023/09/18 03:49:17;;;;;;;20.50;15.18;;;;;;;16.11;100.00;63662.94;5026370;28;20402;-77
2023/09/18 03:51:44;;;;;;;21.48;15.70;;;;;;;16.11;100.00;63663.47;5025325;28;20209;-76
2023/09/18 03:54:11;;;;;;;21.38;15.10;;;;;;;16.11;100.00;63663.47;5022428;28;20223;-75
2023/09/18 03:56:38;;;;;;;24.50;16.00;;;;;;;16.08;100.00;63659.81;5017416;28;20194;-75
2023/09/18 03:59:06;;;;;;;20.65;14.63;;;;;;;16.11;100.00;63668.06;5026313;28;20230;-76
2023/09/18 04:01:33;;;;;;;20.75;15.00;;;;;;;16.17;100.00;63669.69;5037695;28;20611;-76
2023/09/18 04:04:00;;;;;;;18.90;15.18;;;;;;;16.23;100.00;63677.97;5025207;28;20218;-76
2023/09/18 04:06:37;;;;;;;20.90;14.65;;;;;;;16.24;100.00;63673.88;5024750;28;20270;-76
2023/09/18 04:09:04;;;;;;;25.38;14.75;;;;;;;16.20;100.00;63675.38;5038038;28;20284;-77
2023/09/18 04:11:32;;;;;;;21.98;14.43;;;;;;;16.26;100.00;63678.00;5023324;28;20198;-77
2023/09/18 04:13:59;;;;;;;18.67;13.40;;;;;;;16.33;100.00;63683.25;5033183;28;20332;-77
2023/09/18 04:16:29;;;;;;;15.90;13.38;;;;;;;16.24;100.00;63673.38;5024295;28;20205;-77
2023/09/18 04:18:56;;;;;;;18.75;13.70;;;;;;;16.25;100.00;63676.97;5030739;28;20245;-77
2023/09/18 04:21:29;;;;;;;18.08;13.85;;;;;;;16.34;100.00;63686.34;5023502;28;20209;-77
2023/09/18 04:23:57;;;;;;;20.23;14.18;;;;;;;16.32;100.00;63684.78;5032380;28;20230;-77
2023/09/18 04:26:24;;;;;;;18.92;13.57;;;;;;;16.42;100.00;63695.19;5019138;28;20210;-77
2023/09/18 04:28:51;;;;;;;19.15;14.18;;;;;;;16.42;100.00;63695.19;5019643;28;20226;-77
2023/09/18 04:31:18;;;;;;;20.55;16.02;;;;;;;16.54;100.00;63707.69;5033228;28;20212;-79
2023/09/18 04:33:46;;;;;;;21.77;15.38;;;;;;;16.44;100.00;63694.16;5025995;28;20221;-77
2023/09/18 04:36:13;;;;;;;23.83;16.30;;;;;;;16.53;100.00;63706.13;5019796;28;20250;-77
2023/09/18 04:38:40;;;;;;;20.92;16.38;;;;;;;16.62;100.00;63718.56;5021171;28;20234;-76
2023/09/18 04:41:09;;;;;;;22.77;16.00;;;;;;;16.65;100.00;63721.69;5027097;28;20206;-77
2023/09/18 04:43:36;;;;;;;23.95;17.25;;;;;;;16.64;100.00;63718.09;5010326;28;20229;-77
2023/09/18 04:46:04;;;;;;;22.85;17.88;;;;;;;16.66;100.00;63719.63;5019509;28;20412;-77
2023/09/18 04:48:31;;;;;;;27.90;17.33;;;;;;;16.67;100.00;63715.56;5025082;28;20214;-76
2023/09/18 04:51:01;;;;;;;24.00;18.15;;;;;;;16.63;100.00;63714.47;5024492;28;20198;-77
2023/09/18 04:53:28;;;;;;;27.38;18.08;;;;;;;16.68;100.00;63721.72;5028735;28;20224;-76
2023/09/18 04:55:55;;;;;;;46.83;33.85;;;;;;;16.72;100.00;63726.41;5024373;28;20237;-76
2023/09/18 04:58:22;;;;;;;52.15;41.53;;;;;;;16.81;100.00;63737.81;5024842;28;20242;-77
2023/09/18 05:00:54;;;;;;;33.83;23.77;;;;;;;16.87;100.00;63741.50;5041748;28;20245;-76
2023/09/18 05:03:22;;;;;;;31.48;18.90;;;;;;;16.88;100.00;63747.69;5046346;28;20453;-76
2023/09/18 05:05:49;;;;;;;26.73;18.90;;;;;;;16.94;100.00;63749.31;5037412;28;20285;-76
2023/09/18 05:08:18;;;;;;;26.52;19.67;;;;;;;17.08;100.00;63769.00;5024826;28;20210;-77
2023/09/18 05:10:45;;;;;;;26.55;20.23;;;;;;;17.19;100.00;63779.94;5018517;28;20245;-77
2023/09/18 05:13:13;;;;;;;28.42;18.15;;;;;;;17.31;100.00;63784.72;5037808;28;20268;-77
2023/09/18 05:15:40;;;;;;;25.13;17.80;;;;;;;17.41;100.00;63797.19;5044202;28;20545;-77
2023/09/18 05:18:07;;;;;;;23.27;18.13;;;;;;;17.47;100.00;63801.41;5044003;28;20241;-76
2023/09/18 05:20:36;;;;;;;26.15;18.02;;;;;;;17.51;100.00;63805.56;5025092;28;20226;-76
2023/09/18 05:23:03;;;;;;;23.55;18.02;;;;;;;17.24;100.00;63783.09;5025729;28;20202;-77
2023/09/18 05:25:32;;;;;;;26.40;18.75;;;;;;;16.95;100.00;63752.91;5035000;28;20230;-76
2023/09/18 05:28:01;;;;;;;28.90;19.83;;;;;;;16.90;100.00;63745.13;5024545;28;20202;-77
2023/09/18 05:30:30;;;;;;;28.08;20.13;;;;;;;16.83;100.00;63737.84;5024333;28;20225;-76
2023/09/18 05:33:04;;;;;;;28.48;21.83;;;;;;;16.83;100.00;63737.84;5024044;28;20206;-77
2023/09/18 05:35:31;;;;;;;27.63;20.52;;;;;;;16.97;100.00;63749.84;5020484;28;20226;-76
2023/09/18 05:37:59;;;;;;;28.30;18.50;;;;;;;17.18;100.00;63773.75;5025145;28;20261;-77
2023/09/18 05:40:27;;;;;;;30.55;20.55;;;;;;;17.30;100.00;63788.81;5025642;28;20249;-77
2023/09/18 05:42:57;;;;;;;35.05;21.15;;;;;;;17.44;100.00;63802.88;5027521;28;20206;-76
2023/09/18 05:45:24;;;;;;;32.05;21.95;;;;;;;17.63;100.00;63820.63;5044579;28;20482;-77
2023/09/18 05:47:53;;;;;;;25.98;18.92;;;;;;;17.61;100.00;63818.03;5037963;28;20280;-77
2023/09/18 05:50:20;;;;;;;29.85;20.90;;;;;;;17.47;100.00;63800.88;5024630;28;20294;-76
2023/09/18 05:52:49;;;;;;;28.92;18.23;;;;;;;17.45;100.00;63801.34;5029505;28;20240;-76
2023/09/18 05:55:16;;;;;;;27.60;19.13;;;;;;;17.47;100.00;63801.41;5041602;28;20272;-76
2023/09/18 05:57:43;;;;;;;27.75;18.20;;;;;;;17.66;100.00;63825.81;5028679;28;20448;-76
2023/09/18 06:00:14;;;;;;;26.83;19.13;;;;;;;17.62;100.00;63819.06;5024655;28;20236;-77
2023/09/18 06:02:41;;;;;;;24.92;19.48;;;;;;;17.70;100.00;63827.41;5023718;28;20197;-77
2023/09/18 06:05:11;;;;;;;26.98;17.95;;;;;;;17.81;100.00;63841.94;5017485;28;20226;-77
2023/09/18 06:07:38;;;;;;;25.60;19.50;;;;;;;17.61;100.00;63818.03;5027035;28;20206;-76
2023/09/18 06:10:07;;;;;;;25.27;18.45;;;;;;;17.59;100.00;63818.50;5026401;28;20259;-75
2023/09/18 06:12:34;;;;;;;24.92;17.65;;;;;;;17.66;100.00;63826.34;5026577;28;20339;-77
2023/09/18 06:15:01;;;;;;;31.45;21.35;;;;;;;17.68;100.00;63828.41;5027790;28;20240;-77
2023/09/18 06:17:29;;;;;;;29.33;19.77;;;;;;;17.80;100.00;63838.34;5029584;28;20262;-76
2023/09/18 06:19:56;;;;;;;24.27;19.63;;;;;;;17.95;100.00;63850.84;5026443;28;20233;-76
2023/09/18 06:22:23;;;;;;;28.15;19.85;;;;;;;18.15;100.00;63874.28;5039782;28;20215;-78
2023/09/18 06:24:50;;;;;;;21.98;16.70;;;;;;;18.38;100.00;63898.75;5036343;28;20725;-77
2023/09/18 06:27:18;;;;;;;23.63;19.00;;;;;;;18.63;100.00;63921.19;5027187;28;20507;-78
2023/09/18 06:29:45;;;;;;;23.38;16.50;;;;;;;18.68;100.00;63929.00;5028253;28;20257;-76
2023/09/18 06:32:14;;;;;;;22.58;16.60;;;;;;;18.84;100.00;63945.69;5025665;28;20202;-77
2023/09/18 06:34:44;;;;;;;23.98;18.50;;;;;;;18.95;100.00;63957.13;5046512;28;20225;-78
2023/09/18 06:37:12;;;;;;;19.38;14.48;;;;;;;19.01;100.00;63963.91;5026606;28;20198;-77
2023/09/18 06:39:39;;;;;;;26.15;17.48;;;;;;;19.23;100.00;63986.31;5028710;28;20237;-77
2023/09/18 06:42:06;;;;;;;21.90;16.92;;;;;;;19.41;100.00;64005.63;5025795;28;20206;-77
2023/09/18 06:44:33;;;;;;;19.95;16.38;;;;;;;19.62;100.00;64023.91;5030924;28;20291;-78
2023/09/18 06:47:00;;;;;;;16.95;13.88;;;;;;;19.61;100.00;64025.97;5028912;28;20229;-77
2023/09/18 06:49:28;;;;;;;19.80;15.88;;;;;;;19.62;100.00;64026.50;5023740;28;20214;-77
2023/09/18 06:51:57;;;;;;;18.52;14.32;;;;;;;19.81;100.00;64051.50;5027095;28;20202;-78
2023/09/18 06:54:24;;;;;;;16.98;14.40;;;;;;;19.93;100.00;64061.44;5029514;28;20602;-78
2023/09/18 06:56:52;;;;;;;18.73;14.82;;;;;;;19.99;100.00;64065.09;5022251;28;20530;-78
2023/09/18 06:59:19;;;;;;;18.55;14.75;;;;;;;20.23;100.00;64088.09;5024556;28;20269;-77
2023/09/18 07:01:45;;;;;;;18.92;15.10;;;;;;;20.14;100.00;64083.34;5022533;28;20264;-78
2023/09/18 07:04:12;;;;;;;16.33;13.75;;;;;;;20.08;100.00;64072.44;5013428;28;20222;-78
2023/09/18 07:06:40;;;;;;;17.38;14.43;;;;;;;20.23;100.00;64090.16;5016190;28;20240;-78
2023/09/18 07:09:11;;;;;;;15.57;12.68;;;;;;;20.30;100.00;64100.03;5012814;28;20226;-78
2023/09/18 07:11:38;;;;;;;17.20;13.32;;;;;;;20.55;100.00;64128.75;5018271;28;20222;-78
2023/09/18 07:14:06;;;;;;;17.10;14.25;;;;;;;20.72;100.00;64145.97;5024975;28;20469;-77
2023/09/18 07:16:33;;;;;;;17.95;14.23;;;;;;;20.85;100.00;64154.88;5027856;28;20205;-78
2023/09/18 07:19:01;;;;;;;15.75;14.05;;;;;;;20.83;100.00;64152.28;5033818;28;20263;-79
2023/09/18 07:21:29;;;;;;;17.33;15.38;;;;;;;20.45;100.00;64110.53;5031323;28;20225;-79
2023/09/18 07:23:56;;;;;;;18.55;15.45;;;;;;;20.68;100.00;64139.72;5031949;28;20297;-76
2023/09/18 07:26:25;;;;;;;19.88;16.35;;;;;;;20.89;100.00;64161.63;5029139;28;20206;-77
2023/09/18 07:28:52;;;;;;;15.88;13.88;;;;;;;21.01;100.00;64171.59;5029747;28;20249;-77
2023/09/18 07:31:19;;;;;;;15.93;14.10;;;;;;;21.06;99.67;64182.00;5034149;28;20198;-77
2023/09/18 07:33:48;;;;;;;16.77;13.82;;;;;;;21.02;98.58;64172.13;5030341;28;20225;-79
2023/09/18 07:36:15;;;;;;;19.27;13.27;;;;;;;20.92;97.26;64166.84;5021623;28;20261;-78
2023/09/18 07:38:43;;;;;;;14.30;12.70;;;;;;;20.99;97.11;64168.97;5027977;28;20232;-75
2023/09/18 07:41:10;;;;;;;18.38;14.35;;;;;;;20.72;99.89;64138.72;5023996;28;20202;-78
2023/09/18 07:43:41;;;;;;;15.18;13.15;;;;;;;20.81;100.00;64153.28;5028076;28;20237;-78
2023/09/18 07:46:08;;;;;;;14.50;13.00;;;;;;;20.90;98.04;64162.69;5039138;28;20202;-79
2023/09/18 07:48:37;;;;;;;15.73;13.93;;;;;;;21.00;98.82;64170.53;5040462;28;20233;-76
2023/09/18 07:51:04;;;;;;;15.25;13.05;;;;;;;21.08;98.07;64175.78;5026186;28;20206;-78
2023/09/18 07:53:32;;;;;;;17.00;13.95;;;;;;;21.26;96.52;64195.09;5022034;28;20281;-79
2023/09/18 07:56:01;;;;;;;17.05;13.90;;;;;;;21.22;96.53;64190.41;5045374;28;20263;-77
2023/09/18 07:58:28;;;;;;;16.17;13.57;;;;;;;21.35;96.79;64212.28;5025394;28;20202;-77
2023/09/18 08:00:57;;;;;;;17.25;13.68;;;;;;;21.54;96.85;64229.53;5019546;28;20265;-78
2023/09/18 08:03:24;;;;;;;17.27;14.48;;;;;;;21.76;95.44;64249.94;5021159;28;20199;-77
2023/09/18 08:05:53;;;;;;;16.30;13.60;;;;;;;21.80;91.71;64251.00;5022723;28;20199;-77
2023/09/18 08:08:21;;;;;;;17.60;14.55;;;;;;;22.00;94.57;64276.59;5028201;28;20202;-77
2023/09/18 08:10:48;;;;;;;17.77;14.63;;;;;;;22.10;90.41;64287.03;5028414;28;20261;-76
2023/09/18 08:13:15;;;;;;;15.82;13.38;;;;;;;21.99;91.25;64272.94;5028628;28;20550;-79
2023/09/18 08:15:43;;;;;;;17.35;13.88;;;;;;;22.07;89.79;64284.41;5026516;28;20222;-76
2023/09/18 08:18:13;;;;;;;17.83;14.70;;;;;;;22.25;90.97;64305.28;5020669;28;20290;-78
2023/09/18 08:20:42;;;;;;;17.75;12.32;;;;;;;22.18;87.17;64295.38;5027484;28;20466;-78
2023/09/18 08:23:10;;;;;;;18.63;12.77;;;;;;;22.41;87.73;64319.44;5023075;28;20202;-78
2023/09/18 08:25:37;;;;;;;17.48;12.88;;;;;;;22.56;85.01;64332.53;5019427;28;20226;-77
2023/09/18 08:28:06;;;;;;;13.82;11.48;;;;;;;22.49;83.44;64325.72;5020455;28;20202;-77
2023/09/18 08:30:33;;;;;;;17.63;13.07;;;;;;;22.62;83.47;64344.00;5020582;28;20253;-79
2023/09/18 08:33:00;;;;;;;14.32;11.07;;;;;;;22.65;79.08;64341.94;5025280;28;20269;-77
2023/09/18 08:35:29;;;;;;;13.18;11.77;;;;;;;22.82;81.25;64362.84;5039793;28;20288;-77
2023/09/18 08:37:56;;;;;;;12.40;10.93;;;;;;;22.94;77.92;64374.88;5018132;28;20201;-76
2023/09/18 08:40:25;;;;;;;13.95;11.60;;;;;;;23.00;78.45;64375.97;5025924;28;20238;-76
2023/09/18 08:42:56;;;;;;;14.68;10.88;;;;;;;23.12;76.68;64393.16;5027203;28;20221;-75
2023/09/18 08:45:33;;;;;;;13.05;10.45;;;;;;;23.31;76.10;64420.88;5020070;28;20230;-77
2023/09/18 08:48:00;;;;;;;10.23;9.07;;;;;;;23.39;73.37;64421.97;5019484;28;20194;-77
2023/09/18 08:50:30;;;;;;;13.10;10.30;;;;;;;23.51;72.28;64431.38;5019969;28;20404;-78
2023/09/18 08:53:00;;;;;;;11.18;9.65;;;;;;;23.64;69.87;64445.00;5022837;28;20201;-77
2023/09/18 08:55:27;;;;;;;13.48;9.93;;;;;;;23.53;69.31;64433.47;5021494;28;20462;-77
2023/09/18 08:57:55;;;;;;;14.45;10.38;;;;;;;23.59;71.45;64442.88;5028618;28;20273;-77
2023/09/18 09:00:22;;;;;;;11.93;9.90;;;;;;;23.63;69.97;64441.34;5023590;28;20522;-77
2023/09/18 09:02:51;;;;;;;10.40;8.82;;;;;;;23.64;68.68;64445.00;5035993;28;20232;-77
2023/09/18 09:05:18;;;;;;;14.55;9.25;;;;;;;23.75;70.61;64459.63;5025688;28;20226;-76
2023/09/18 09:07:46;;;;;;;11.80;8.52;;;;;;;23.90;68.53;64472.19;5023072;28;20262;-77
2023/09/18 09:10:13;;;;;;;11.40;10.05;;;;;;;24.07;67.68;64494.69;5023313;28;20548;-76
2023/09/18 09:12:54;;;;;;;10.52;9.52;;;;;;;24.06;66.83;64488.94;5036321;28;20230;-76
2023/09/18 09:15:22;;;;;;;9.00;8.10;;;;;;;23.42;64.58;64422.50;5027901;28;20230;-77
2023/09/18 09:17:51;;;;;;;10.63;9.38;;;;;;;23.54;69.07;64435.03;5017608;28;20206;-77
2023/09/18 09:20:19;;;;;;;15.07;10.35;;;;;;;23.40;70.19;64427.69;5028952;28;20237;-77
2023/09/18 09:22:48;;;;;;;11.43;10.23;;;;;;;23.54;71.90;64437.13;5028812;28;20379;-77
2023/09/18 09:25:26;;;;;;;12.68;9.25;;;;;;;23.63;68.49;64441.88;5039441;28;20228;-77
2023/09/18 09:27:54;;;;;;;12.30;8.35;;;;;;;23.49;65.91;64432.41;5026533;28;20225;-77
2023/09/18 09:30:23;;;;;;;10.43;8.13;;;;;;;23.66;64.41;64449.69;5021588;28;20250;-77
2023/09/18 09:32:52;;;;;;;9.57;8.15;;;;;;;23.97;65.03;64479.50;5027986;28;20273;-76
2023/09/18 09:35:24;;;;;;;10.98;9.35;;;;;;;23.93;63.59;64475.88;5039326;28;20221;-76
2023/09/18 09:37:52;;;;;;;10.57;9.25;;;;;;;23.98;64.20;64481.09;5019992;28;20214;-76
2023/09/18 09:40:21;;;;;;;9.05;8.23;;;;;;;24.04;63.74;64481.16;5019351;28;20226;-76
2023/09/18 09:42:49;;;;;;;8.43;7.63;;;;;;;23.95;60.63;64480.03;5029396;28;20233;-78
2023/09/18 09:45:17;;;;;;;7.95;6.55;;;;;;;24.13;60.58;64498.88;5025870;28;20237;-77
2023/09/18 09:47:45;;;;;;;7.90;6.85;;;;;;;24.35;58.85;64519.31;5026659;28;20206;-77
2023/09/18 09:50:15;;;;;;;7.47;6.78;;;;;;;24.49;57.33;64539.19;5022394;28;20290;-77
2023/09/18 09:52:48;;;;;;;8.65;7.82;;;;;;;24.74;58.17;64557.56;5034049;28;20231;-77
2023/09/18 09:55:28;;;;;;;12.50;7.97;;;;;;;24.90;57.24;64576.41;5032087;28;20249;-76
2023/09/18 09:57:59;;;;;;;10.30;8.07;;;;;;;25.06;57.05;64593.69;5027987;28;20578;-77
2023/09/18 10:00:31;;;;;;;8.68;7.82;;;;;;;25.18;56.06;64605.72;5020019;28;20238;-77
2023/09/18 10:03:00;;;;;;;8.73;7.82;;;;;;;25.17;52.96;64609.38;5027524;28;20233;-77
2023/09/18 10:05:34;;;;;;;9.38;8.43;;;;;;;25.13;53.89;64611.44;5024991;28;20226;-76
2023/09/18 10:08:03;;;;;;;9.82;8.38;;;;;;;25.06;53.53;64598.38;5019212;28;20194;-76
2023/09/18 10:10:34;;;;;;;9.85;8.25;;;;;;;25.07;55.57;64599.94;5028315;28;20297;-78
2023/09/18 10:13:10;;;;;;;7.97;7.20;;;;;;;25.05;54.78;64597.84;5028860;28;20336;-77
2023/09/18 10:15:38;;;;;;;7.22;6.55;;;;;;;24.50;53.33;64535.03;5014896;28;20230;-77
2023/09/18 10:18:14;;;;;;;10.32;8.30;;;;;;;24.46;54.95;64530.31;5028569;28;20515;-76
2023/09/18 10:20:43;;;;;;;8.38;7.68;;;;;;;24.75;55.54;64563.81;5008042;28;20234;-77
2023/09/18 10:23:24;;;;;;;8.63;7.80;;;;;;;24.93;56.07;64582.16;5025814;28;20198;-77
2023/09/18 10:25:56;;;;;;;8.80;7.70;;;;;;;24.97;56.57;64588.94;5025519;28;20222;-75
2023/09/18 10:28:26;;;;;;;7.25;6.65;;;;;;;25.09;54.42;64599.44;5033393;28;20260;-78
2023/09/18 10:30:56;;;;;;;7.82;7.13;;;;;;;25.14;53.09;64602.06;5045303;28;20206;-77
2023/09/18 10:33:23;;;;;;;8.85;8.05;;;;;;;25.04;52.94;64594.19;5032452;28;20194;-76
2023/09/18 10:35:52;;;;;;;8.05;7.25;;;;;;;24.86;53.59;64577.94;5025540;28;20225;-78
2023/09/18 10:38:20;;;;;;;8.13;7.35;;;;;;;24.82;53.68;64570.63;5022738;28;20209;-77
2023/09/18 10:40:49;;;;;;;7.53;6.82;;;;;;;24.90;52.75;64576.91;5030748;28;20238;-76
2023/09/18 10:43:18;;;;;;;9.68;7.32;;;;;;;24.67;54.18;64558.03;5031376;28;20250;-76
2023/09/18 10:45:46;;;;;;;7.85;7.18;;;;;;;24.89;56.45;64580.56;5025519;28;20249;-75
2023/09/18 10:48:14;;;;;;;10.13;8.15;;;;;;;24.85;55.54;64571.19;5022637;28;20225;-77
2023/09/18 10:50:45;;;;;;;7.55;6.82;;;;;;;24.84;54.09;64572.72;5024257;28;20228;-76
2023/09/18 10:53:13;;;;;;;8.73;7.90;;;;;;;24.72;54.35;64560.16;5019875;28;20274;-76
2023/09/18 10:55:43;;;;;;;10.60;7.85;;;;;;;24.74;54.82;64560.19;5022902;28;20218;-77
2023/09/18 10:58:10;;;;;;;7.20;6.68;;;;;;;24.74;55.40;64559.66;5020191;28;20198;-77
2023/09/18 11:00:38;;;;;;;10.70;7.38;;;;;;;24.92;57.09;64581.09;5026826;28;20237;-77
2023/09/18 11:03:17;;;;;;;8.52;7.22;;;;;;;24.94;52.88;64583.19;5031195;28;20430;-78
2023/09/18 11:05:45;;;;;;;8.18;6.38;;;;;;;25.16;52.61;64606.25;5027832;28;20226;-76
2023/09/18 11:08:33;;;;;;;8.07;7.28;;;;;;;25.33;52.48;64618.31;5014414;28;20479;-77
2023/09/18 11:11:08;;;;;;;6.13;5.63;;;;;;;25.38;48.61;64631.41;5020243;28;20202;-75
2023/09/18 11:13:39;;;;;;;6.35;5.75;;;;;;;25.06;49.72;64598.91;5033170;28;20197;-75
2023/09/18 11:16:34;;;;;;;6.00;5.40;;;;;;;24.72;50.47;64562.75;5032772;28;20409;-76
2023/09/18 11:19:10;;;;;;;7.85;5.80;;;;;;;24.83;53.40;64572.19;5012745;28;20220;-77
2023/09/18 11:21:37;;;;;;;6.93;6.43;;;;;;;25.13;53.34;64605.69;5022437;28;20284;-77